Terminal Aerodrome Forecast
Issued by NWS Amarillo, TX

Home | Current Version | Previous Version | Text Only | Print | Product List | Glossary On
Versions: 1 2 3 4 5 6 7 8 9 10 11 12
207
FTUS44 KAMA 232320
TAFAMA
TAF
KAMA 232320Z 2400/2424 18016G24KT P6SM SCT100
     FM240200 17011KT P6SM FEW100 SCT300
     FM241300 21012KT P6SM SKC
     FM241800 17012G19KT P6SM SKC=

USA.gov is the U.S. government's official web portal to all federal, state and local government web resources and services.